Impacts TAF Board
For situational awareness. Not to be used for flight planning purposes.
IDs:

KDTW - Detroit Metro/Wayne, MI, US

Issued at 2112 UTC 19 Jan 2019
Updated at 2231 UTC 19 Jan 2019
Potential Impact None Slight Moderate High
Time<<20/23Z 21/00Z 21/01Z 21/02Z 21/03Z 21/04Z 21/05Z 21/06Z 21/07Z 21/08Z 21/09Z 21/10Z 21/11Z
Type PRVL
VIS >6
CIG --
Cover SCT
FltCat VFR
WX --
WDir 340
WSpd 12
WGst 22
Raw TAF
KDTW 192112Z 1921/2024 03015G25KT 1SM -SN BR SCT009 OVC015
  FM192300 03015G24KT 4SM -SN BR BKN015 OVC025
  FM200100 02016G26KT P6SM OVC015
  FM200900 35015G25KT P6SM OVC025
  FM201800 34012G22KT P6SM SCT030


METAR Board
Radar Display
Forecast Discussion
For situational awareness. Not to be used for flight planning purposes.